sensor_id;sensor_type;location;lat;lon;timestamp;P1;durP1;ratioP1;P2;durP2;ratioP2
4597;SDS011;62772;48.646;8.906;2022-08-11T00:04:24;7.10;;;3.23;;
4597;SDS011;62772;48.646;8.906;2022-08-11T00:09:32;5.20;;;3.03;;
4597;SDS011;62772;48.646;8.906;2022-08-11T00:14:36;5.03;;;3.33;;
4597;SDS011;62772;48.646;8.906;2022-08-11T00:19:47;5.40;;;3.20;;
4597;SDS011;62772;48.646;8.906;2022-08-11T00:24:51;7.80;;;3.40;;
4597;SDS011;62772;48.646;8.906;2022-08-11T00:29:52;8.40;;;3.37;;
4597;SDS011;62772;48.646;8.906;2022-08-11T00:34:54;5.23;;;3.10;;
4597;SDS011;62772;48.646;8.906;2022-08-11T00:39:59;4.90;;;3.33;;
4597;SDS011;62772;48.646;8.906;2022-08-11T00:45:05;6.07;;;3.60;;
4597;SDS011;62772;48.646;8.906;2022-08-11T00:50:15;6.70;;;3.70;;
4597;SDS011;62772;48.646;8.906;2022-08-11T00:55:38;6.90;;;3.30;;
4597;SDS011;62772;48.646;8.906;2022-08-11T01:01:04;7.03;;;3.53;;
4597;SDS011;62772;48.646;8.906;2022-08-11T01:34:07;5.20;;;3.80;;
4597;SDS011;62772;48.646;8.906;2022-08-11T01:45:20;7.47;;;4.07;;
4597;SDS011;62772;48.646;8.906;2022-08-11T01:50:43;5.30;;;3.23;;
4597;SDS011;62772;48.646;8.906;2022-08-11T01:56:09;5.40;;;3.83;;
4597;SDS011;62772;48.646;8.906;2022-08-11T02:01:25;5.30;;;3.93;;
4597;SDS011;62772;48.646;8.906;2022-08-11T02:06:35;5.57;;;3.80;;
4597;SDS011;62772;48.646;8.906;2022-08-11T02:12:00;5.83;;;3.90;;
4597;SDS011;62772;48.646;8.906;2022-08-11T02:17:14;5.30;;;3.83;;
4597;SDS011;62772;48.646;8.906;2022-08-11T02:22:22;5.20;;;3.60;;
4597;SDS011;62772;48.646;8.906;2022-08-11T02:27:52;9.37;;;3.53;;
4597;SDS011;62772;48.646;8.906;2022-08-11T02:33:01;5.63;;;3.87;;
4597;SDS011;62772;48.646;8.906;2022-08-11T02:38:25;4.90;;;3.53;;
4597;SDS011;62772;48.646;8.906;2022-08-11T02:43:38;6.20;;;3.57;;
4597;SDS011;62772;48.646;8.906;2022-08-11T02:48:49;5.70;;;3.77;;
4597;SDS011;62772;48.646;8.906;2022-08-11T02:54:16;5.80;;;3.93;;
4597;SDS011;62772;48.646;8.906;2022-08-11T02:59:31;8.17;;;3.70;;
4597;SDS011;62772;48.646;8.906;2022-08-11T03:04:55;6.40;;;4.33;;
4597;SDS011;62772;48.646;8.906;2022-08-11T03:10:03;5.70;;;3.90;;
4597;SDS011;62772;48.646;8.906;2022-08-11T03:15:14;5.00;;;3.80;;
4597;SDS011;62772;48.646;8.906;2022-08-11T03:20:37;6.30;;;4.23;;
4597;SDS011;62772;48.646;8.906;2022-08-11T03:25:45;5.77;;;4.00;;
4597;SDS011;62772;48.646;8.906;2022-08-11T03:31:00;7.10;;;4.00;;
4597;SDS011;62772;48.646;8.906;2022-08-11T03:36:17;8.13;;;4.17;;
4597;SDS011;62772;48.646;8.906;2022-08-11T03:41:29;5.80;;;4.17;;
4597;SDS011;62772;48.646;8.906;2022-08-11T03:46:51;8.60;;;3.90;;
4597;SDS011;62772;48.646;8.906;2022-08-11T03:52:05;5.80;;;4.33;;
4597;SDS011;62772;48.646;8.906;2022-08-11T04:08:23;6.30;;;4.50;;
4597;SDS011;62772;48.646;8.906;2022-08-11T04:19:46;6.20;;;4.40;;
4597;SDS011;62772;48.646;8.906;2022-08-11T04:25:14;5.90;;;4.20;;
4597;SDS011;62772;48.646;8.906;2022-08-11T04:30:52;6.90;;;3.80;;
4597;SDS011;62772;48.646;8.906;2022-08-11T04:36:09;7.20;;;4.20;;
4597;SDS011;62772;48.646;8.906;2022-08-11T04:42:10;5.93;;;3.90;;
4597;SDS011;62772;48.646;8.906;2022-08-11T04:47:48;9.87;;;4.63;;
4597;SDS011;62772;48.646;8.906;2022-08-11T04:53:28;8.27;;;4.20;;
4597;SDS011;62772;48.646;8.906;2022-08-11T04:59:14;5.77;;;4.00;;
4597;SDS011;62772;48.646;8.906;2022-08-11T05:04:49;6.00;;;4.00;;
4597;SDS011;62772;48.646;8.906;2022-08-11T05:10:18;8.97;;;3.97;;
4597;SDS011;62772;48.646;8.906;2022-08-11T05:15:33;7.80;;;5.10;;
4597;SDS011;62772;48.646;8.906;2022-08-11T05:21:03;6.03;;;4.10;;
4597;SDS011;62772;48.646;8.906;2022-08-11T05:26:26;9.53;;;5.20;;
4597;SDS011;62772;48.646;8.906;2022-08-11T05:31:58;7.53;;;4.73;;
4597;SDS011;62772;48.646;8.906;2022-08-11T05:37:21;9.90;;;4.57;;
4597;SDS011;62772;48.646;8.906;2022-08-11T05:42:32;7.67;;;4.40;;
4597;SDS011;62772;48.646;8.906;2022-08-11T05:47:57;7.77;;;4.50;;
4597;SDS011;62772;48.646;8.906;2022-08-11T05:53:17;7.80;;;4.80;;
4597;SDS011;62772;48.646;8.906;2022-08-11T05:58:38;10.23;;;5.13;;
4597;SDS011;62772;48.646;8.906;2022-08-11T06:03:44;8.37;;;4.87;;
4597;SDS011;62772;48.646;8.906;2022-08-11T06:09:03;8.33;;;4.37;;
4597;SDS011;62772;48.646;8.906;2022-08-11T06:14:04;7.47;;;4.73;;
4597;SDS011;62772;48.646;8.906;2022-08-11T06:19:08;12.13;;;5.37;;
4597;SDS011;62772;48.646;8.906;2022-08-11T06:24:10;7.77;;;4.40;;
4597;SDS011;62772;48.646;8.906;2022-08-11T06:29:12;13.10;;;4.53;;
4597;SDS011;62772;48.646;8.906;2022-08-11T06:34:25;9.77;;;4.80;;
4597;SDS011;62772;48.646;8.906;2022-08-11T06:39:39;13.80;;;4.40;;
4597;SDS011;62772;48.646;8.906;2022-08-11T06:44:48;8.40;;;4.57;;
4597;SDS011;62772;48.646;8.906;2022-08-11T06:50:02;11.30;;;3.97;;
4597;SDS011;62772;48.646;8.906;2022-08-11T06:55:26;10.13;;;4.10;;
4597;SDS011;62772;48.646;8.906;2022-08-11T07:00:47;8.00;;;4.23;;
4597;SDS011;62772;48.646;8.906;2022-08-11T07:05:57;6.20;;;3.87;;
4597;SDS011;62772;48.646;8.906;2022-08-11T07:16:51;11.47;;;4.30;;
4597;SDS011;62772;48.646;8.906;2022-08-11T07:21:56;9.70;;;4.40;;
4597;SDS011;62772;48.646;8.906;2022-08-11T07:27:20;6.10;;;4.23;;
4597;SDS011;62772;48.646;8.906;2022-08-11T07:32:46;9.50;;;4.07;;
4597;SDS011;62772;48.646;8.906;2022-08-11T07:37:55;13.80;;;4.60;;
4597;SDS011;62772;48.646;8.906;2022-08-11T07:42:58;6.70;;;3.97;;
4597;SDS011;62772;48.646;8.906;2022-08-11T07:48:00;7.23;;;3.53;;
4597;SDS011;62772;48.646;8.906;2022-08-11T07:53:22;5.70;;;3.53;;
4597;SDS011;62772;48.646;8.906;2022-08-11T07:58:24;9.07;;;3.90;;
4597;SDS011;62772;48.646;8.906;2022-08-11T08:03:44;5.50;;;3.53;;
4597;SDS011;62772;48.646;8.906;2022-08-11T08:09:08;7.10;;;3.93;;
4597;SDS011;62772;48.646;8.906;2022-08-11T08:14:28;7.93;;;3.80;;
4597;SDS011;62772;48.646;8.906;2022-08-11T08:19:47;4.57;;;3.50;;
4597;SDS011;62772;48.646;8.906;2022-08-11T08:24:52;6.90;;;4.03;;
4597;SDS011;62772;48.646;8.906;2022-08-11T08:29:55;5.73;;;3.70;;
4597;SDS011;62772;48.646;8.906;2022-08-11T08:35:15;7.70;;;4.10;;
4597;SDS011;62772;48.646;8.906;2022-08-11T08:40:19;7.60;;;3.73;;
4597;SDS011;62772;48.646;8.906;2022-08-11T08:45:20;6.00;;;3.47;;
4597;SDS011;62772;48.646;8.906;2022-08-11T08:50:22;9.00;;;3.87;;
4597;SDS011;62772;48.646;8.906;2022-08-11T08:55:48;8.70;;;3.53;;
4597;SDS011;62772;48.646;8.906;2022-08-11T09:00:51;7.73;;;3.90;;
4597;SDS011;62772;48.646;8.906;2022-08-11T09:05:53;7.80;;;3.57;;
4597;SDS011;62772;48.646;8.906;2022-08-11T09:10:57;5.30;;;3.77;;
4597;SDS011;62772;48.646;8.906;2022-08-11T09:16:18;5.30;;;3.37;;
4597;SDS011;62772;48.646;8.906;2022-08-11T09:21:23;8.13;;;3.70;;
4597;SDS011;62772;48.646;8.906;2022-08-11T09:26:26;6.20;;;3.37;;
4597;SDS011;62772;48.646;8.906;2022-08-11T09:31:46;5.83;;;3.40;;
4597;SDS011;62772;48.646;8.906;2022-08-11T09:36:47;5.00;;;3.10;;
4597;SDS011;62772;48.646;8.906;2022-08-11T09:42:10;5.00;;;3.27;;
4597;SDS011;62772;48.646;8.906;2022-08-11T09:47:12;5.70;;;3.80;;
4597;SDS011;62772;48.646;8.906;2022-08-11T09:52:17;5.23;;;3.27;;
4597;SDS011;62772;48.646;8.906;2022-08-11T09:57:22;7.27;;;3.67;;
4597;SDS011;62772;48.646;8.906;2022-08-11T10:02:45;5.23;;;3.27;;
4597;SDS011;62772;48.646;8.906;2022-08-11T10:07:49;5.03;;;3.37;;
4597;SDS011;62772;48.646;8.906;2022-08-11T10:12:56;8.93;;;3.60;;
4597;SDS011;62772;48.646;8.906;2022-08-11T10:18:03;4.33;;;3.13;;
4597;SDS011;62772;48.646;8.906;2022-08-11T10:23:25;4.70;;;3.50;;
4597;SDS011;62772;48.646;8.906;2022-08-11T10:28:51;6.70;;;3.30;;
4597;SDS011;62772;48.646;8.906;2022-08-11T10:33:52;5.60;;;3.33;;
4597;SDS011;62772;48.646;8.906;2022-08-11T10:39:00;5.73;;;3.63;;
4597;SDS011;62772;48.646;8.906;2022-08-11T10:44:06;5.43;;;3.40;;
4597;SDS011;62772;48.646;8.906;2022-08-11T10:49:10;4.63;;;2.90;;
4597;SDS011;62772;48.646;8.906;2022-08-11T10:54:11;5.03;;;2.83;;
4597;SDS011;62772;48.646;8.906;2022-08-11T10:59:35;4.50;;;3.03;;
4597;SDS011;62772;48.646;8.906;2022-08-11T11:04:38;5.97;;;2.87;;
4597;SDS011;62772;48.646;8.906;2022-08-11T11:09:47;4.90;;;3.20;;
4597;SDS011;62772;48.646;8.906;2022-08-11T11:14:52;7.27;;;2.90;;
4597;SDS011;62772;48.646;8.906;2022-08-11T11:20:15;4.23;;;3.07;;
4597;SDS011;62772;48.646;8.906;2022-08-11T11:25:21;4.00;;;2.53;;
4597;SDS011;62772;48.646;8.906;2022-08-11T11:30:34;8.57;;;2.90;;
4597;SDS011;62772;48.646;8.906;2022-08-11T11:35:45;5.40;;;3.20;;
4597;SDS011;62772;48.646;8.906;2022-08-11T11:40:55;4.30;;;3.20;;
4597;SDS011;62772;48.646;8.906;2022-08-11T11:46:18;4.28;;;2.72;;
4597;SDS011;62772;48.646;8.906;2022-08-11T11:51:20;5.20;;;2.70;;
4597;SDS011;62772;48.646;8.906;2022-08-11T11:56:22;4.07;;;2.80;;
4597;SDS011;62772;48.646;8.906;2022-08-11T12:01:27;6.75;;;2.45;;
4597;SDS011;62772;48.646;8.906;2022-08-11T12:06:29;4.20;;;2.50;;
4597;SDS011;62772;48.646;8.906;2022-08-11T12:11:31;4.18;;;2.50;;
4597;SDS011;62772;48.646;8.906;2022-08-11T12:16:54;4.53;;;2.90;;
4597;SDS011;62772;48.646;8.906;2022-08-11T12:21:59;3.13;;;2.28;;
4597;SDS011;62772;48.646;8.906;2022-08-11T12:27:18;6.15;;;2.60;;
4597;SDS011;62772;48.646;8.906;2022-08-11T12:32:23;8.63;;;2.78;;
4597;SDS011;62772;48.646;8.906;2022-08-11T12:37:27;4.88;;;2.92;;
4597;SDS011;62772;48.646;8.906;2022-08-11T12:42:32;4.32;;;2.92;;
4597;SDS011;62772;48.646;8.906;2022-08-11T12:47:57;4.07;;;2.35;;
4597;SDS011;62772;48.646;8.906;2022-08-11T12:53:21;4.78;;;2.33;;
4597;SDS011;62772;48.646;8.906;2022-08-11T12:58:25;8.98;;;2.58;;
4597;SDS011;62772;48.646;8.906;2022-08-11T13:03:30;6.05;;;2.42;;
4597;SDS011;62772;48.646;8.906;2022-08-11T13:08:51;3.88;;;2.83;;
4597;SDS011;62772;48.646;8.906;2022-08-11T13:13:54;3.78;;;2.40;;
4597;SDS011;62772;48.646;8.906;2022-08-11T13:19:00;4.57;;;2.30;;
4597;SDS011;62772;48.646;8.906;2022-08-11T13:24:01;3.42;;;2.50;;
4597;SDS011;62772;48.646;8.906;2022-08-11T13:29:02;3.60;;;2.42;;
4597;SDS011;62772;48.646;8.906;2022-08-11T13:34:06;5.57;;;3.13;;
4597;SDS011;62772;48.646;8.906;2022-08-11T13:39:08;3.85;;;2.50;;
4597;SDS011;62772;48.646;8.906;2022-08-11T13:44:10;4.30;;;2.78;;
4597;SDS011;62772;48.646;8.906;2022-08-11T13:49:16;4.57;;;2.40;;
4597;SDS011;62772;48.646;8.906;2022-08-11T13:54:20;4.35;;;2.63;;
4597;SDS011;62772;48.646;8.906;2022-08-11T13:59:22;4.70;;;2.35;;
4597;SDS011;62772;48.646;8.906;2022-08-11T14:04:27;4.07;;;2.40;;
4597;SDS011;62772;48.646;8.906;2022-08-11T14:09:34;3.95;;;2.42;;
4597;SDS011;62772;48.646;8.906;2022-08-11T14:14:36;3.15;;;2.40;;
4597;SDS011;62772;48.646;8.906;2022-08-11T14:19:41;6.30;;;2.25;;
4597;SDS011;62772;48.646;8.906;2022-08-11T14:24:46;3.10;;;2.20;;
4597;SDS011;62772;48.646;8.906;2022-08-11T14:29:50;3.25;;;2.47;;
4597;SDS011;62772;48.646;8.906;2022-08-11T14:34:55;5.18;;;2.53;;
4597;SDS011;62772;48.646;8.906;2022-08-11T14:39:59;7.18;;;2.70;;
4597;SDS011;62772;48.646;8.906;2022-08-11T14:45:20;3.08;;;2.40;;
4597;SDS011;62772;48.646;8.906;2022-08-11T14:50:43;5.25;;;2.53;;
4597;SDS011;62772;48.646;8.906;2022-08-11T14:55:45;4.35;;;2.40;;
4597;SDS011;62772;48.646;8.906;2022-08-11T15:01:05;4.85;;;2.20;;
4597;SDS011;62772;48.646;8.906;2022-08-11T15:06:28;8.63;;;2.50;;
4597;SDS011;62772;48.646;8.906;2022-08-11T15:11:29;4.10;;;2.33;;
4597;SDS011;62772;48.646;8.906;2022-08-11T15:16:49;3.83;;;2.50;;
4597;SDS011;62772;48.646;8.906;2022-08-11T15:22:11;4.03;;;2.33;;
4597;SDS011;62772;48.646;8.906;2022-08-11T15:27:30;3.65;;;2.30;;
4597;SDS011;62772;48.646;8.906;2022-08-11T15:32:52;2.97;;;2.25;;
4597;SDS011;62772;48.646;8.906;2022-08-11T15:38:15;5.55;;;2.20;;
4597;SDS011;62772;48.646;8.906;2022-08-11T15:43:20;4.05;;;2.13;;
4597;SDS011;62772;48.646;8.906;2022-08-11T15:48:42;4.03;;;2.60;;
4597;SDS011;62772;48.646;8.906;2022-08-11T15:53:51;3.90;;;2.50;;
4597;SDS011;62772;48.646;8.906;2022-08-11T15:58:53;6.38;;;2.63;;
4597;SDS011;62772;48.646;8.906;2022-08-11T16:04:17;2.90;;;2.50;;
4597;SDS011;62772;48.646;8.906;2022-08-11T16:09:25;3.22;;;2.28;;
4597;SDS011;62772;48.646;8.906;2022-08-11T16:14:30;3.90;;;2.30;;
4597;SDS011;62772;48.646;8.906;2022-08-11T16:19:52;4.32;;;2.20;;
4597;SDS011;62772;48.646;8.906;2022-08-11T16:24:58;3.22;;;2.30;;
4597;SDS011;62772;48.646;8.906;2022-08-11T16:30:00;3.35;;;2.40;;
4597;SDS011;62772;48.646;8.906;2022-08-11T16:35:05;4.65;;;2.65;;
4597;SDS011;62772;48.646;8.906;2022-08-11T16:40:30;4.63;;;2.55;;
4597;SDS011;62772;48.646;8.906;2022-08-11T16:45:32;3.30;;;2.35;;
4597;SDS011;62772;48.646;8.906;2022-08-11T16:50:53;3.33;;;2.13;;
4597;SDS011;62772;48.646;8.906;2022-08-11T16:55:58;4.43;;;2.80;;
4597;SDS011;62772;48.646;8.906;2022-08-11T17:01:02;5.65;;;2.30;;
4597;SDS011;62772;48.646;8.906;2022-08-11T17:06:03;3.67;;;2.30;;
4597;SDS011;62772;48.646;8.906;2022-08-11T17:11:29;4.00;;;2.25;;
4597;SDS011;62772;48.646;8.906;2022-08-11T17:16:51;8.48;;;2.80;;
4597;SDS011;62772;48.646;8.906;2022-08-11T17:21:53;5.30;;;2.70;;
4597;SDS011;62772;48.646;8.906;2022-08-11T17:27:16;3.85;;;2.50;;
4597;SDS011;62772;48.646;8.906;2022-08-11T17:32:20;5.18;;;2.60;;
4597;SDS011;62772;48.646;8.906;2022-08-11T17:37:42;7.25;;;2.20;;
4597;SDS011;62772;48.646;8.906;2022-08-11T17:42:46;4.28;;;2.30;;
4597;SDS011;62772;48.646;8.906;2022-08-11T17:48:07;4.28;;;2.15;;
4597;SDS011;62772;48.646;8.906;2022-08-11T17:53:28;4.40;;;2.50;;
4597;SDS011;62772;48.646;8.906;2022-08-11T17:58:53;3.60;;;2.20;;
4597;SDS011;62772;48.646;8.906;2022-08-11T18:04:14;6.25;;;2.30;;
4597;SDS011;62772;48.646;8.906;2022-08-11T18:09:18;5.32;;;2.55;;
4597;SDS011;62772;48.646;8.906;2022-08-11T18:14:44;3.08;;;2.17;;
4597;SDS011;62772;48.646;8.906;2022-08-11T18:20:06;4.15;;;2.40;;
4597;SDS011;62772;48.646;8.906;2022-08-11T18:25:29;4.78;;;2.90;;
4597;SDS011;62772;48.646;8.906;2022-08-11T18:30:53;3.20;;;2.00;;
4597;SDS011;62772;48.646;8.906;2022-08-11T18:36:19;4.65;;;2.35;;
4597;SDS011;62772;48.646;8.906;2022-08-11T18:41:40;3.50;;;2.30;;
4597;SDS011;62772;48.646;8.906;2022-08-11T18:47:07;3.28;;;2.55;;
4597;SDS011;62772;48.646;8.906;2022-08-11T18:52:29;5.20;;;2.72;;
4597;SDS011;62772;48.646;8.906;2022-08-11T18:57:49;6.13;;;2.80;;
4597;SDS011;62772;48.646;8.906;2022-08-11T19:03:13;9.02;;;2.72;;
4597;SDS011;62772;48.646;8.906;2022-08-11T19:08:34;5.15;;;2.80;;
4597;SDS011;62772;48.646;8.906;2022-08-11T19:13:57;5.47;;;2.90;;
4597;SDS011;62772;48.646;8.906;2022-08-11T19:19:21;4.97;;;2.70;;
4597;SDS011;62772;48.646;8.906;2022-08-11T19:24:43;4.82;;;2.80;;
4597;SDS011;62772;48.646;8.906;2022-08-11T19:30:06;4.90;;;3.23;;
4597;SDS011;62772;48.646;8.906;2022-08-11T19:35:28;6.83;;;3.10;;
4597;SDS011;62772;48.646;8.906;2022-08-11T19:40:49;4.83;;;3.50;;
4597;SDS011;62772;48.646;8.906;2022-08-11T19:46:10;5.40;;;3.40;;
4597;SDS011;62772;48.646;8.906;2022-08-11T19:51:33;9.73;;;3.90;;
4597;SDS011;62772;48.646;8.906;2022-08-11T19:56:54;7.03;;;3.63;;
4597;SDS011;62772;48.646;8.906;2022-08-11T20:02:14;7.73;;;3.73;;
4597;SDS011;62772;48.646;8.906;2022-08-11T20:07:36;7.10;;;3.90;;
4597;SDS011;62772;48.646;8.906;2022-08-11T20:12:56;5.00;;;3.63;;
4597;SDS011;62772;48.646;8.906;2022-08-11T20:18:16;7.70;;;3.97;;
4597;SDS011;62772;48.646;8.906;2022-08-11T20:23:39;4.70;;;3.20;;
4597;SDS011;62772;48.646;8.906;2022-08-11T20:29:01;7.60;;;4.13;;
4597;SDS011;62772;48.646;8.906;2022-08-11T20:34:20;4.07;;;3.13;;
4597;SDS011;62772;48.646;8.906;2022-08-11T20:39:43;6.40;;;4.13;;
4597;SDS011;62772;48.646;8.906;2022-08-11T20:45:03;6.50;;;4.53;;
4597;SDS011;62772;48.646;8.906;2022-08-11T20:50:26;5.07;;;3.50;;
4597;SDS011;62772;48.646;8.906;2022-08-11T20:55:49;7.13;;;3.87;;
4597;SDS011;62772;48.646;8.906;2022-08-11T21:01:08;9.10;;;3.40;;
4597;SDS011;62772;48.646;8.906;2022-08-11T21:06:29;7.43;;;3.50;;
4597;SDS011;62772;48.646;8.906;2022-08-11T21:11:52;5.80;;;3.40;;
4597;SDS011;62772;48.646;8.906;2022-08-11T21:17:14;6.37;;;3.30;;
4597;SDS011;62772;48.646;8.906;2022-08-11T21:22:37;6.13;;;3.73;;
4597;SDS011;62772;48.646;8.906;2022-08-11T21:28:05;10.03;;;4.20;;
4597;SDS011;62772;48.646;8.906;2022-08-11T21:33:27;5.53;;;3.73;;
4597;SDS011;62772;48.646;8.906;2022-08-11T21:38:49;5.17;;;3.70;;
4597;SDS011;62772;48.646;8.906;2022-08-11T21:44:12;7.10;;;4.07;;
4597;SDS011;62772;48.646;8.906;2022-08-11T21:49:33;6.87;;;3.57;;
4597;SDS011;62772;48.646;8.906;2022-08-11T21:54:57;4.90;;;3.57;;
4597;SDS011;62772;48.646;8.906;2022-08-11T22:00:19;7.20;;;3.30;;
4597;SDS011;62772;48.646;8.906;2022-08-11T22:05:39;7.83;;;3.80;;
4597;SDS011;62772;48.646;8.906;2022-08-11T22:11:00;6.13;;;4.20;;
4597;SDS011;62772;48.646;8.906;2022-08-11T22:16:23;6.73;;;4.53;;
4597;SDS011;62772;48.646;8.906;2022-08-11T22:21:43;8.37;;;4.37;;
4597;SDS011;62772;48.646;8.906;2022-08-11T22:27:02;7.17;;;4.67;;
4597;SDS011;62772;48.646;8.906;2022-08-11T22:32:24;8.00;;;4.70;;
4597;SDS011;62772;48.646;8.906;2022-08-11T22:37:45;6.23;;;3.83;;
4597;SDS011;62772;48.646;8.906;2022-08-11T22:43:04;5.50;;;3.80;;
4597;SDS011;62772;48.646;8.906;2022-08-11T22:48:28;8.53;;;3.90;;
4597;SDS011;62772;48.646;8.906;2022-08-11T22:53:48;7.60;;;4.87;;
4597;SDS011;62772;48.646;8.906;2022-08-11T22:59:09;8.80;;;5.13;;
4597;SDS011;62772;48.646;8.906;2022-08-11T23:04:31;6.53;;;4.60;;
4597;SDS011;62772;48.646;8.906;2022-08-11T23:09:51;6.37;;;4.20;;
4597;SDS011;62772;48.646;8.906;2022-08-11T23:15:11;9.20;;;4.80;;
4597;SDS011;62772;48.646;8.906;2022-08-11T23:20:33;7.93;;;4.60;;
4597;SDS011;62772;48.646;8.906;2022-08-11T23:25:54;7.20;;;4.10;;
4597;SDS011;62772;48.646;8.906;2022-08-11T23:31:14;5.33;;;3.87;;
4597;SDS011;62772;48.646;8.906;2022-08-11T23:36:38;5.53;;;3.77;;
4597;SDS011;62772;48.646;8.906;2022-08-11T23:41:58;6.27;;;4.27;;
4597;SDS011;62772;48.646;8.906;2022-08-11T23:47:17;11.80;;;4.40;;
4597;SDS011;62772;48.646;8.906;2022-08-11T23:52:40;7.83;;;3.83;;
4597;SDS011;62772;48.646;8.906;2022-08-11T23:58:00;8.20;;;4.33;;
